sensor_id;sensor_type;location;lat;lon;timestamp;P1;durP1;ratioP1;P2;durP2;ratioP2
36213;SDS011;37652;50.400;30.628;2022-09-16T00:00:07;3.95;;;3.40;;
36213;SDS011;37652;50.400;30.628;2022-09-16T00:02:09;3.75;;;3.53;;
36213;SDS011;37652;50.400;30.628;2022-09-16T00:04:10;3.50;;;3.30;;
36213;SDS011;37652;50.400;30.628;2022-09-16T00:06:18;5.18;;;4.25;;
36213;SDS011;37652;50.400;30.628;2022-09-16T00:08:26;4.20;;;3.88;;
36213;SDS011;37652;50.400;30.628;2022-09-16T00:10:27;3.92;;;3.53;;
36213;SDS011;37652;50.400;30.628;2022-09-16T00:12:28;4.43;;;4.00;;
36213;SDS011;37652;50.400;30.628;2022-09-16T00:14:29;4.82;;;4.05;;
36213;SDS011;37652;50.400;30.628;2022-09-16T00:16:30;5.30;;;4.63;;
36213;SDS011;37652;50.400;30.628;2022-09-16T00:18:31;5.35;;;4.85;;
36213;SDS011;37652;50.400;30.628;2022-09-16T00:20:32;5.53;;;5.13;;
36213;SDS011;37652;50.400;30.628;2022-09-16T00:22:33;5.70;;;5.22;;
36213;SDS011;37652;50.400;30.628;2022-09-16T00:24:34;5.85;;;5.35;;
36213;SDS011;37652;50.400;30.628;2022-09-16T00:26:35;9.57;;;6.75;;
36213;SDS011;37652;50.400;30.628;2022-09-16T00:28:37;6.25;;;5.75;;
36213;SDS011;37652;50.400;30.628;2022-09-16T00:30:38;6.28;;;5.70;;
36213;SDS011;37652;50.400;30.628;2022-09-16T00:32:39;7.40;;;5.88;;
36213;SDS011;37652;50.400;30.628;2022-09-16T00:34:39;8.68;;;5.95;;
36213;SDS011;37652;50.400;30.628;2022-09-16T00:36:40;7.60;;;6.40;;
36213;SDS011;37652;50.400;30.628;2022-09-16T00:38:42;9.05;;;6.63;;
36213;SDS011;37652;50.400;30.628;2022-09-16T00:40:47;6.97;;;6.28;;
36213;SDS011;37652;50.400;30.628;2022-09-16T00:42:48;7.28;;;6.63;;
36213;SDS011;37652;50.400;30.628;2022-09-16T00:44:57;7.28;;;6.57;;
36213;SDS011;37652;50.400;30.628;2022-09-16T00:47:02;8.02;;;7.25;;
36213;SDS011;37652;50.400;30.628;2022-09-16T00:49:04;6.97;;;6.38;;
36213;SDS011;37652;50.400;30.628;2022-09-16T00:51:11;7.78;;;7.03;;
36213;SDS011;37652;50.400;30.628;2022-09-16T00:53:15;9.18;;;7.07;;
36213;SDS011;37652;50.400;30.628;2022-09-16T00:55:22;6.95;;;6.35;;
36213;SDS011;37652;50.400;30.628;2022-09-16T00:57:27;7.32;;;6.63;;
36213;SDS011;37652;50.400;30.628;2022-09-16T00:59:31;7.97;;;7.30;;
36213;SDS011;37652;50.400;30.628;2022-09-16T01:01:39;7.35;;;6.72;;
36213;SDS011;37652;50.400;30.628;2022-09-16T01:03:51;7.65;;;6.95;;
36213;SDS011;37652;50.400;30.628;2022-09-16T01:05:55;7.30;;;6.70;;
36213;SDS011;37652;50.400;30.628;2022-09-16T01:07:56;7.45;;;6.85;;
36213;SDS011;37652;50.400;30.628;2022-09-16T01:09:58;8.00;;;7.30;;
36213;SDS011;37652;50.400;30.628;2022-09-16T01:11:59;7.70;;;7.10;;
36213;SDS011;37652;50.400;30.628;2022-09-16T01:13:59;7.97;;;7.28;;
36213;SDS011;37652;50.400;30.628;2022-09-16T01:18:54;8.23;;;7.57;;
36213;SDS011;37652;50.400;30.628;2022-09-16T01:30:10;8.48;;;7.63;;
36213;SDS011;37652;50.400;30.628;2022-09-16T01:41:05;9.65;;;8.75;;
36213;SDS011;37652;50.400;30.628;2022-09-16T01:43:38;9.80;;;8.90;;
36213;SDS011;37652;50.400;30.628;2022-09-16T01:46:02;11.75;;;9.80;;
36213;SDS011;37652;50.400;30.628;2022-09-16T01:48:36;11.02;;;9.38;;
36213;SDS011;37652;50.400;30.628;2022-09-16T01:51:13;11.35;;;10.00;;
36213;SDS011;37652;50.400;30.628;2022-09-16T01:53:45;10.53;;;9.53;;
36213;SDS011;37652;50.400;30.628;2022-09-16T01:56:02;10.77;;;9.68;;
36213;SDS011;37652;50.400;30.628;2022-09-16T01:58:29;11.20;;;10.00;;
36213;SDS011;37652;50.400;30.628;2022-09-16T02:00:58;11.20;;;9.80;;
36213;SDS011;37652;50.400;30.628;2022-09-16T02:03:02;12.60;;;10.23;;
36213;SDS011;37652;50.400;30.628;2022-09-16T02:05:14;12.65;;;10.00;;
36213;SDS011;37652;50.400;30.628;2022-09-16T02:07:29;12.00;;;10.50;;
36213;SDS011;37652;50.400;30.628;2022-09-16T02:09:33;11.30;;;9.93;;
36213;SDS011;37652;50.400;30.628;2022-09-16T02:11:38;10.90;;;10.00;;
36213;SDS011;37652;50.400;30.628;2022-09-16T02:13:44;12.10;;;10.90;;
36213;SDS011;37652;50.400;30.628;2022-09-16T02:15:48;10.95;;;9.82;;
36213;SDS011;37652;50.400;30.628;2022-09-16T02:17:54;11.73;;;10.35;;
36213;SDS011;37652;50.400;30.628;2022-09-16T02:22:00;12.02;;;10.65;;
36213;SDS011;37652;50.400;30.628;2022-09-16T02:24:08;11.00;;;9.88;;
36213;SDS011;37652;50.400;30.628;2022-09-16T02:26:13;12.07;;;10.88;;
36213;SDS011;37652;50.400;30.628;2022-09-16T02:28:19;12.70;;;11.40;;
36213;SDS011;37652;50.400;30.628;2022-09-16T02:30:32;12.02;;;10.82;;
36213;SDS011;37652;50.400;30.628;2022-09-16T02:32:35;12.27;;;10.82;;
36213;SDS011;37652;50.400;30.628;2022-09-16T02:34:42;12.07;;;10.88;;
36213;SDS011;37652;50.400;30.628;2022-09-16T02:36:46;12.18;;;10.98;;
36213;SDS011;37652;50.400;30.628;2022-09-16T02:38:54;12.55;;;11.27;;
36213;SDS011;37652;50.400;30.628;2022-09-16T02:41:00;12.50;;;10.88;;
36213;SDS011;37652;50.400;30.628;2022-09-16T02:43:01;11.98;;;10.77;;
36213;SDS011;37652;50.400;30.628;2022-09-16T02:45:02;12.55;;;11.20;;
36213;SDS011;37652;50.400;30.628;2022-09-16T02:53:49;12.23;;;10.20;;
36213;SDS011;37652;50.400;30.628;2022-09-16T02:55:58;9.98;;;9.05;;
36213;SDS011;37652;50.400;30.628;2022-09-16T02:58:05;12.52;;;11.32;;
36213;SDS011;37652;50.400;30.628;2022-09-16T03:00:06;13.98;;;11.52;;
36213;SDS011;37652;50.400;30.628;2022-09-16T03:02:08;11.35;;;10.32;;
36213;SDS011;37652;50.400;30.628;2022-09-16T03:04:09;10.70;;;9.70;;
36213;SDS011;37652;50.400;30.628;2022-09-16T03:08:21;10.35;;;9.45;;
36213;SDS011;37652;50.400;30.628;2022-09-16T03:10:23;10.70;;;9.68;;
36213;SDS011;37652;50.400;30.628;2022-09-16T03:12:31;10.18;;;9.20;;
36213;SDS011;37652;50.400;30.628;2022-09-16T03:19:07;10.82;;;9.73;;
36213;SDS011;37652;50.400;30.628;2022-09-16T03:21:16;10.90;;;9.85;;
36213;SDS011;37652;50.400;30.628;2022-09-16T03:25:43;10.80;;;9.80;;
36213;SDS011;37652;50.400;30.628;2022-09-16T03:27:50;10.88;;;9.77;;
36213;SDS011;37652;50.400;30.628;2022-09-16T03:30:05;13.15;;;10.10;;
36213;SDS011;37652;50.400;30.628;2022-09-16T03:32:22;11.07;;;9.98;;
36213;SDS011;37652;50.400;30.628;2022-09-16T03:34:32;11.55;;;10.35;;
36213;SDS011;37652;50.400;30.628;2022-09-16T03:36:42;10.25;;;9.27;;
36213;SDS011;37652;50.400;30.628;2022-09-16T03:38:46;11.60;;;9.35;;
36213;SDS011;37652;50.400;30.628;2022-09-16T03:40:48;9.20;;;8.38;;
36213;SDS011;37652;50.400;30.628;2022-09-16T03:42:51;10.63;;;9.63;;
36213;SDS011;37652;50.400;30.628;2022-09-16T03:44:52;10.68;;;9.57;;
36213;SDS011;37652;50.400;30.628;2022-09-16T03:46:53;9.10;;;8.20;;
36213;SDS011;37652;50.400;30.628;2022-09-16T03:48:56;10.52;;;9.48;;
36213;SDS011;37652;50.400;30.628;2022-09-16T03:50:57;10.10;;;9.20;;
36213;SDS011;37652;50.400;30.628;2022-09-16T03:52:58;10.77;;;9.65;;
36213;SDS011;37652;50.400;30.628;2022-09-16T03:54:59;11.40;;;10.20;;
36213;SDS011;37652;50.400;30.628;2022-09-16T03:57:01;10.52;;;9.32;;
36213;SDS011;37652;50.400;30.628;2022-09-16T04:01:02;9.93;;;9.00;;
36213;SDS011;37652;50.400;30.628;2022-09-16T04:03:03;10.73;;;9.63;;
36213;SDS011;37652;50.400;30.628;2022-09-16T04:05:05;10.27;;;9.05;;
36213;SDS011;37652;50.400;30.628;2022-09-16T04:07:07;9.48;;;8.63;;
36213;SDS011;37652;50.400;30.628;2022-09-16T04:11:11;9.48;;;8.65;;
36213;SDS011;37652;50.400;30.628;2022-09-16T04:13:12;9.82;;;8.93;;
36213;SDS011;37652;50.400;30.628;2022-09-16T04:15:12;9.10;;;8.35;;
36213;SDS011;37652;50.400;30.628;2022-09-16T04:17:13;9.75;;;8.85;;
36213;SDS011;37652;50.400;30.628;2022-09-16T04:19:14;9.65;;;8.80;;
36213;SDS011;37652;50.400;30.628;2022-09-16T04:21:15;9.90;;;9.00;;
36213;SDS011;37652;50.400;30.628;2022-09-16T04:23:16;10.20;;;9.18;;
36213;SDS011;37652;50.400;30.628;2022-09-16T04:25:16;10.90;;;9.80;;
36213;SDS011;37652;50.400;30.628;2022-09-16T04:27:17;10.15;;;9.20;;
36213;SDS011;37652;50.400;30.628;2022-09-16T04:29:18;11.07;;;9.90;;
36213;SDS011;37652;50.400;30.628;2022-09-16T04:31:20;11.18;;;10.05;;
36213;SDS011;37652;50.400;30.628;2022-09-16T04:33:21;10.52;;;9.57;;
36213;SDS011;37652;50.400;30.628;2022-09-16T04:37:24;10.20;;;9.20;;
36213;SDS011;37652;50.400;30.628;2022-09-16T04:39:25;9.05;;;8.23;;
36213;SDS011;37652;50.400;30.628;2022-09-16T04:41:26;11.50;;;9.40;;
36213;SDS011;37652;50.400;30.628;2022-09-16T04:43:27;11.57;;;9.63;;
36213;SDS011;37652;50.400;30.628;2022-09-16T04:45:28;10.23;;;9.20;;
36213;SDS011;37652;50.400;30.628;2022-09-16T04:47:29;10.82;;;9.80;;
36213;SDS011;37652;50.400;30.628;2022-09-16T04:51:31;9.83;;;8.93;;
36213;SDS011;37652;50.400;30.628;2022-09-16T04:53:32;11.52;;;9.00;;
36213;SDS011;37652;50.400;30.628;2022-09-16T04:55:33;10.50;;;9.50;;
36213;SDS011;37652;50.400;30.628;2022-09-16T04:57:34;12.23;;;9.13;;
36213;SDS011;37652;50.400;30.628;2022-09-16T04:59:35;11.05;;;9.95;;
36213;SDS011;37652;50.400;30.628;2022-09-16T05:01:37;10.70;;;8.77;;
36213;SDS011;37652;50.400;30.628;2022-09-16T05:03:39;9.75;;;8.85;;
36213;SDS011;37652;50.400;30.628;2022-09-16T05:05:40;11.48;;;10.40;;
36213;SDS011;37652;50.400;30.628;2022-09-16T05:07:41;10.00;;;9.10;;
36213;SDS011;37652;50.400;30.628;2022-09-16T05:09:42;9.95;;;9.05;;
36213;SDS011;37652;50.400;30.628;2022-09-16T05:11:43;10.02;;;9.07;;
36213;SDS011;37652;50.400;30.628;2022-09-16T05:13:44;11.27;;;10.18;;
36213;SDS011;37652;50.400;30.628;2022-09-16T05:17:46;9.80;;;8.90;;
36213;SDS011;37652;50.400;30.628;2022-09-16T05:19:47;10.60;;;9.55;;
36213;SDS011;37652;50.400;30.628;2022-09-16T05:21:48;9.70;;;8.90;;
36213;SDS011;37652;50.400;30.628;2022-09-16T05:23:49;10.45;;;8.68;;
36213;SDS011;37652;50.400;30.628;2022-09-16T05:27:50;11.40;;;8.73;;
36213;SDS011;37652;50.400;30.628;2022-09-16T05:29:51;9.65;;;8.77;;
36213;SDS011;37652;50.400;30.628;2022-09-16T05:31:52;11.60;;;8.70;;
36213;SDS011;37652;50.400;30.628;2022-09-16T05:33:54;13.55;;;9.55;;
36213;SDS011;37652;50.400;30.628;2022-09-16T05:36:02;9.50;;;8.63;;
36213;SDS011;37652;50.400;30.628;2022-09-16T05:38:06;10.52;;;9.48;;
36213;SDS011;37652;50.400;30.628;2022-09-16T05:40:07;16.30;;;14.45;;
36213;SDS011;37652;50.400;30.628;2022-09-16T05:42:08;10.98;;;9.98;;
36213;SDS011;37652;50.400;30.628;2022-09-16T05:44:10;13.52;;;11.55;;
36213;SDS011;37652;50.400;30.628;2022-09-16T05:48:17;13.35;;;11.00;;
36213;SDS011;37652;50.400;30.628;2022-09-16T05:50:18;11.00;;;10.00;;
36213;SDS011;37652;50.400;30.628;2022-09-16T05:54:20;13.87;;;12.47;;
36213;SDS011;37652;50.400;30.628;2022-09-16T05:56:24;17.13;;;12.82;;
36213;SDS011;37652;50.400;30.628;2022-09-16T05:58:27;12.15;;;10.40;;
36213;SDS011;37652;50.400;30.628;2022-09-16T06:00:29;11.25;;;10.15;;
36213;SDS011;37652;50.400;30.628;2022-09-16T06:02:30;14.13;;;10.05;;
36213;SDS011;37652;50.400;30.628;2022-09-16T06:04:31;14.57;;;10.88;;
36213;SDS011;37652;50.400;30.628;2022-09-16T06:08:34;11.73;;;10.15;;
36213;SDS011;37652;50.400;30.628;2022-09-16T06:10:36;11.73;;;9.48;;
36213;SDS011;37652;50.400;30.628;2022-09-16T06:12:40;10.30;;;9.05;;
36213;SDS011;37652;50.400;30.628;2022-09-16T06:14:41;10.05;;;8.20;;
36213;SDS011;37652;50.400;30.628;2022-09-16T06:16:42;10.00;;;8.95;;
36213;SDS011;37652;50.400;30.628;2022-09-16T06:18:43;11.68;;;9.38;;
36213;SDS011;37652;50.400;30.628;2022-09-16T06:20:45;10.70;;;9.60;;
36213;SDS011;37652;50.400;30.628;2022-09-16T06:22:46;11.27;;;9.82;;
36213;SDS011;37652;50.400;30.628;2022-09-16T06:24:47;11.25;;;9.35;;
36213;SDS011;37652;50.400;30.628;2022-09-16T06:26:48;10.43;;;9.45;;
36213;SDS011;37652;50.400;30.628;2022-09-16T06:28:52;11.30;;;10.05;;
36213;SDS011;37652;50.400;30.628;2022-09-16T06:31:00;16.67;;;10.38;;
36213;SDS011;37652;50.400;30.628;2022-09-16T06:33:03;13.88;;;9.90;;
36213;SDS011;37652;50.400;30.628;2022-09-16T06:35:04;11.10;;;10.05;;
36213;SDS011;37652;50.400;30.628;2022-09-16T06:37:04;11.57;;;9.60;;
36213;SDS011;37652;50.400;30.628;2022-09-16T06:39:05;11.27;;;9.40;;
36213;SDS011;37652;50.400;30.628;2022-09-16T06:41:07;10.50;;;9.32;;
36213;SDS011;37652;50.400;30.628;2022-09-16T06:43:09;11.48;;;9.90;;
36213;SDS011;37652;50.400;30.628;2022-09-16T06:47:11;13.10;;;10.07;;
36213;SDS011;37652;50.400;30.628;2022-09-16T06:49:12;13.93;;;9.20;;
36213;SDS011;37652;50.400;30.628;2022-09-16T06:51:14;10.75;;;9.43;;
36213;SDS011;37652;50.400;30.628;2022-09-16T06:53:16;10.68;;;9.60;;
36213;SDS011;37652;50.400;30.628;2022-09-16T06:55:17;11.32;;;10.15;;
36213;SDS011;37652;50.400;30.628;2022-09-16T06:57:18;11.13;;;9.73;;
36213;SDS011;37652;50.400;30.628;2022-09-16T06:59:21;12.32;;;9.93;;
36213;SDS011;37652;50.400;30.628;2022-09-16T07:01:23;12.73;;;10.52;;
36213;SDS011;37652;50.400;30.628;2022-09-16T07:03:28;16.38;;;10.30;;
36213;SDS011;37652;50.400;30.628;2022-09-16T07:05:29;14.50;;;10.80;;
36213;SDS011;37652;50.400;30.628;2022-09-16T07:07:30;12.77;;;10.52;;
36213;SDS011;37652;50.400;30.628;2022-09-16T07:09:33;13.45;;;11.52;;
36213;SDS011;37652;50.400;30.628;2022-09-16T07:11:33;19.73;;;9.70;;
36213;SDS011;37652;50.400;30.628;2022-09-16T07:15:35;11.07;;;9.90;;
36213;SDS011;37652;50.400;30.628;2022-09-16T07:19:37;12.77;;;9.13;;
36213;SDS011;37652;50.400;30.628;2022-09-16T07:21:38;10.25;;;9.18;;
36213;SDS011;37652;50.400;30.628;2022-09-16T07:23:40;13.73;;;9.20;;
36213;SDS011;37652;50.400;30.628;2022-09-16T07:25:42;8.80;;;7.90;;
36213;SDS011;37652;50.400;30.628;2022-09-16T07:27:42;9.27;;;8.32;;
36213;SDS011;37652;50.400;30.628;2022-09-16T07:29:43;9.52;;;8.63;;
36213;SDS011;37652;50.400;30.628;2022-09-16T07:31:44;9.43;;;8.40;;
36213;SDS011;37652;50.400;30.628;2022-09-16T07:33:46;10.40;;;8.95;;
36213;SDS011;37652;50.400;30.628;2022-09-16T07:35:49;12.30;;;8.27;;
36213;SDS011;37652;50.400;30.628;2022-09-16T07:37:49;11.63;;;8.02;;
36213;SDS011;37652;50.400;30.628;2022-09-16T07:39:50;9.52;;;7.57;;
36213;SDS011;37652;50.400;30.628;2022-09-16T07:41:51;8.70;;;7.82;;
36213;SDS011;37652;50.400;30.628;2022-09-16T07:45:55;8.25;;;7.45;;
36213;SDS011;37652;50.400;30.628;2022-09-16T07:47:56;10.85;;;7.55;;
36213;SDS011;37652;50.400;30.628;2022-09-16T07:49:56;9.50;;;8.50;;
36213;SDS011;37652;50.400;30.628;2022-09-16T07:51:58;9.52;;;8.52;;
36213;SDS011;37652;50.400;30.628;2022-09-16T07:54:01;8.63;;;7.10;;
36213;SDS011;37652;50.400;30.628;2022-09-16T07:56:04;10.63;;;8.98;;
36213;SDS011;37652;50.400;30.628;2022-09-16T07:58:07;11.27;;;9.32;;
36213;SDS011;37652;50.400;30.628;2022-09-16T08:00:08;16.38;;;9.77;;
36213;SDS011;37652;50.400;30.628;2022-09-16T08:02:10;10.43;;;8.05;;
36213;SDS011;37652;50.400;30.628;2022-09-16T08:06:14;10.63;;;8.90;;
36213;SDS011;37652;50.400;30.628;2022-09-16T08:08:16;9.80;;;8.88;;
36213;SDS011;37652;50.400;30.628;2022-09-16T08:10:18;13.05;;;8.95;;
36213;SDS011;37652;50.400;30.628;2022-09-16T08:12:18;11.88;;;8.98;;
36213;SDS011;37652;50.400;30.628;2022-09-16T08:14:19;14.48;;;8.88;;
36213;SDS011;37652;50.400;30.628;2022-09-16T08:16:21;12.18;;;8.18;;
36213;SDS011;37652;50.400;30.628;2022-09-16T08:18:21;11.90;;;8.43;;
36213;SDS011;37652;50.400;30.628;2022-09-16T08:22:25;11.23;;;7.25;;
36213;SDS011;37652;50.400;30.628;2022-09-16T08:24:26;13.52;;;7.50;;
36213;SDS011;37652;50.400;30.628;2022-09-16T08:26:27;7.20;;;5.88;;
36213;SDS011;37652;50.400;30.628;2022-09-16T08:28:28;9.07;;;7.03;;
36213;SDS011;37652;50.400;30.628;2022-09-16T08:30:29;7.93;;;5.65;;
36213;SDS011;37652;50.400;30.628;2022-09-16T08:34:31;9.50;;;5.57;;
36213;SDS011;37652;50.400;30.628;2022-09-16T08:36:32;5.05;;;4.57;;
36213;SDS011;37652;50.400;30.628;2022-09-16T08:40:35;5.90;;;3.95;;
36213;SDS011;37652;50.400;30.628;2022-09-16T08:42:52;5.18;;;3.53;;
36213;SDS011;37652;50.400;30.628;2022-09-16T08:47:04;5.35;;;3.90;;
36213;SDS011;37652;50.400;30.628;2022-09-16T08:51:14;4.85;;;3.88;;
36213;SDS011;37652;50.400;30.628;2022-09-16T08:55:25;6.72;;;3.90;;
36213;SDS011;37652;50.400;30.628;2022-09-16T08:57:36;4.05;;;2.97;;
36213;SDS011;37652;50.400;30.628;2022-09-16T08:59:42;5.60;;;3.80;;
36213;SDS011;37652;50.400;30.628;2022-09-16T09:01:54;4.93;;;3.50;;
36213;SDS011;37652;50.400;30.628;2022-09-16T09:03:56;3.57;;;3.27;;
36213;SDS011;37652;50.400;30.628;2022-09-16T09:05:58;4.55;;;3.55;;
36213;SDS011;37652;50.400;30.628;2022-09-16T09:08:06;5.13;;;3.67;;
36213;SDS011;37652;50.400;30.628;2022-09-16T09:10:32;7.70;;;3.40;;
36213;SDS011;37652;50.400;30.628;2022-09-16T09:12:48;8.23;;;3.08;;
36213;SDS011;37652;50.400;30.628;2022-09-16T09:17:10;4.20;;;3.28;;
36213;SDS011;37652;50.400;30.628;2022-09-16T09:19:20;4.47;;;3.05;;
36213;SDS011;37652;50.400;30.628;2022-09-16T09:26:21;3.83;;;3.17;;
36213;SDS011;37652;50.400;30.628;2022-09-16T09:37:54;3.53;;;2.75;;
36213;SDS011;37652;50.400;30.628;2022-09-16T09:45:01;3.00;;;2.40;;
36213;SDS011;37652;50.400;30.628;2022-09-16T09:47:07;4.57;;;2.70;;
36213;SDS011;37652;50.400;30.628;2022-09-16T09:49:40;4.88;;;3.55;;
36213;SDS011;37652;50.400;30.628;2022-09-16T09:56:32;5.50;;;2.78;;
36213;SDS011;37652;50.400;30.628;2022-09-16T09:58:37;3.05;;;2.58;;
36213;SDS011;37652;50.400;30.628;2022-09-16T10:00:43;3.28;;;2.67;;
36213;SDS011;37652;50.400;30.628;2022-09-16T10:02:44;3.10;;;2.60;;
36213;SDS011;37652;50.400;30.628;2022-09-16T10:04:45;2.92;;;2.42;;
36213;SDS011;37652;50.400;30.628;2022-09-16T10:06:46;7.00;;;2.75;;
36213;SDS011;37652;50.400;30.628;2022-09-16T10:08:49;4.28;;;2.45;;
36213;SDS011;37652;50.400;30.628;2022-09-16T10:11:00;4.13;;;3.10;;
36213;SDS011;37652;50.400;30.628;2022-09-16T10:13:13;4.22;;;2.45;;
36213;SDS011;37652;50.400;30.628;2022-09-16T10:15:23;4.43;;;2.83;;
36213;SDS011;37652;50.400;30.628;2022-09-16T10:17:29;3.10;;;2.60;;
36213;SDS011;37652;50.400;30.628;2022-09-16T10:19:33;4.53;;;2.47;;
36213;SDS011;37652;50.400;30.628;2022-09-16T10:23:54;6.05;;;2.75;;
36213;SDS011;37652;50.400;30.628;2022-09-16T10:26:12;5.63;;;2.63;;
36213;SDS011;37652;50.400;30.628;2022-09-16T10:28:19;7.03;;;3.05;;
36213;SDS011;37652;50.400;30.628;2022-09-16T10:30:24;4.45;;;3.38;;
36213;SDS011;37652;50.400;30.628;2022-09-16T10:32:47;3.30;;;2.60;;
36213;SDS011;37652;50.400;30.628;2022-09-16T10:34:49;4.15;;;3.42;;
36213;SDS011;37652;50.400;30.628;2022-09-16T10:37:00;4.30;;;3.08;;
36213;SDS011;37652;50.400;30.628;2022-09-16T10:39:22;3.45;;;3.15;;
36213;SDS011;37652;50.400;30.628;2022-09-16T10:41:26;4.22;;;2.97;;
36213;SDS011;37652;50.400;30.628;2022-09-16T10:43:55;5.25;;;2.83;;
36213;SDS011;37652;50.400;30.628;2022-09-16T10:46:02;4.45;;;2.80;;
36213;SDS011;37652;50.400;30.628;2022-09-16T10:48:10;3.88;;;2.80;;
36213;SDS011;37652;50.400;30.628;2022-09-16T10:50:17;4.40;;;3.15;;
36213;SDS011;37652;50.400;30.628;2022-09-16T10:52:25;5.45;;;2.88;;
36213;SDS011;37652;50.400;30.628;2022-09-16T10:54:27;4.80;;;3.20;;
36213;SDS011;37652;50.400;30.628;2022-09-16T10:56:30;5.63;;;3.00;;
36213;SDS011;37652;50.400;30.628;2022-09-16T10:58:33;3.22;;;2.95;;
36213;SDS011;37652;50.400;30.628;2022-09-16T11:00:36;5.57;;;2.40;;
36213;SDS011;37652;50.400;30.628;2022-09-16T11:24:13;4.93;;;3.05;;
36213;SDS011;37652;50.400;30.628;2022-09-16T11:30:52;3.60;;;2.83;;
36213;SDS011;37652;50.400;30.628;2022-09-16T11:37:37;7.30;;;3.90;;
36213;SDS011;37652;50.400;30.628;2022-09-16T11:44:22;4.70;;;3.28;;
36213;SDS011;37652;50.400;30.628;2022-09-16T11:46:44;4.07;;;3.60;;
36213;SDS011;37652;50.400;30.628;2022-09-16T11:54:12;6.90;;;4.10;;
36213;SDS011;37652;50.400;30.628;2022-09-16T11:58:53;6.30;;;3.38;;
36213;SDS011;37652;50.400;30.628;2022-09-16T12:01:00;5.05;;;3.35;;
36213;SDS011;37652;50.400;30.628;2022-09-16T12:05:46;4.25;;;2.85;;
36213;SDS011;37652;50.400;30.628;2022-09-16T12:08:02;7.55;;;3.47;;
36213;SDS011;37652;50.400;30.628;2022-09-16T12:12:22;5.03;;;3.65;;
36213;SDS011;37652;50.400;30.628;2022-09-16T12:14:29;5.38;;;3.17;;
36213;SDS011;37652;50.400;30.628;2022-09-16T12:18:56;11.85;;;3.90;;
36213;SDS011;37652;50.400;30.628;2022-09-16T12:23:25;6.53;;;3.30;;
36213;SDS011;37652;50.400;30.628;2022-09-16T12:25:33;6.57;;;3.30;;
36213;SDS011;37652;50.400;30.628;2022-09-16T12:28:01;5.10;;;3.00;;
36213;SDS011;37652;50.400;30.628;2022-09-16T12:30:14;4.75;;;3.40;;
36213;SDS011;37652;50.400;30.628;2022-09-16T12:35:19;3.95;;;2.75;;
36213;SDS011;37652;50.400;30.628;2022-09-16T12:39:35;6.63;;;2.90;;
36213;SDS011;37652;50.400;30.628;2022-09-16T12:41:41;5.13;;;2.75;;
36213;SDS011;37652;50.400;30.628;2022-09-16T12:46:17;5.22;;;3.25;;
36213;SDS011;37652;50.400;30.628;2022-09-16T12:53:16;5.65;;;2.80;;
36213;SDS011;37652;50.400;30.628;2022-09-16T12:55:47;4.45;;;2.67;;
36213;SDS011;37652;50.400;30.628;2022-09-16T13:00:31;4.78;;;2.50;;
36213;SDS011;37652;50.400;30.628;2022-09-16T13:02:46;4.30;;;2.80;;
36213;SDS011;37652;50.400;30.628;2022-09-16T13:04:52;5.05;;;2.40;;
36213;SDS011;37652;50.400;30.628;2022-09-16T13:06:56;7.65;;;3.58;;
36213;SDS011;37652;50.400;30.628;2022-09-16T13:11:22;4.15;;;2.80;;
36213;SDS011;37652;50.400;30.628;2022-09-16T13:13:36;3.28;;;2.97;;
36213;SDS011;37652;50.400;30.628;2022-09-16T13:15:42;5.05;;;2.95;;
36213;SDS011;37652;50.400;30.628;2022-09-16T13:17:44;2.60;;;2.40;;
36213;SDS011;37652;50.400;30.628;2022-09-16T13:19:51;4.10;;;2.90;;
36213;SDS011;37652;50.400;30.628;2022-09-16T13:21:54;3.95;;;2.92;;
36213;SDS011;37652;50.400;30.628;2022-09-16T13:24:10;5.03;;;3.30;;
36213;SDS011;37652;50.400;30.628;2022-09-16T13:26:38;4.30;;;3.55;;
36213;SDS011;37652;50.400;30.628;2022-09-16T13:28:41;3.75;;;3.15;;
36213;SDS011;37652;50.400;30.628;2022-09-16T13:30:43;5.38;;;3.10;;
36213;SDS011;37652;50.400;30.628;2022-09-16T13:35:00;4.00;;;3.50;;
36213;SDS011;37652;50.400;30.628;2022-09-16T13:37:27;4.75;;;3.28;;
36213;SDS011;37652;50.400;30.628;2022-09-16T13:39:29;3.15;;;2.85;;
36213;SDS011;37652;50.400;30.628;2022-09-16T13:41:33;3.30;;;3.00;;
36213;SDS011;37652;50.400;30.628;2022-09-16T13:45:44;5.82;;;2.85;;
36213;SDS011;37652;50.400;30.628;2022-09-16T13:47:48;3.35;;;2.70;;
36213;SDS011;37652;50.400;30.628;2022-09-16T13:49:54;5.00;;;3.30;;
36213;SDS011;37652;50.400;30.628;2022-09-16T13:52:12;4.85;;;3.05;;
36213;SDS011;37652;50.400;30.628;2022-09-16T13:54:34;4.63;;;2.90;;
36213;SDS011;37652;50.400;30.628;2022-09-16T14:01:11;4.43;;;3.00;;
36213;SDS011;37652;50.400;30.628;2022-09-16T14:03:32;9.68;;;5.32;;
36213;SDS011;37652;50.400;30.628;2022-09-16T14:14:28;4.25;;;3.25;;
36213;SDS011;37652;50.400;30.628;2022-09-16T14:16:32;3.88;;;2.65;;
36213;SDS011;37652;50.400;30.628;2022-09-16T14:18:35;3.45;;;2.50;;
36213;SDS011;37652;50.400;30.628;2022-09-16T14:20:36;3.08;;;2.78;;
36213;SDS011;37652;50.400;30.628;2022-09-16T14:22:37;3.35;;;2.70;;
36213;SDS011;37652;50.400;30.628;2022-09-16T14:24:43;5.35;;;2.60;;
36213;SDS011;37652;50.400;30.628;2022-09-16T14:26:52;2.80;;;2.50;;
36213;SDS011;37652;50.400;30.628;2022-09-16T14:29:00;2.80;;;2.58;;
36213;SDS011;37652;50.400;30.628;2022-09-16T14:31:05;3.28;;;2.72;;
36213;SDS011;37652;50.400;30.628;2022-09-16T14:33:09;4.75;;;2.83;;
36213;SDS011;37652;50.400;30.628;2022-09-16T14:39:15;4.25;;;3.33;;
36213;SDS011;37652;50.400;30.628;2022-09-16T14:41:20;3.20;;;2.35;;
36213;SDS011;37652;50.400;30.628;2022-09-16T14:43:36;3.85;;;2.55;;
36213;SDS011;37652;50.400;30.628;2022-09-16T14:45:38;3.85;;;2.78;;
36213;SDS011;37652;50.400;30.628;2022-09-16T14:47:45;2.85;;;2.38;;
36213;SDS011;37652;50.400;30.628;2022-09-16T14:49:48;3.53;;;2.38;;
36213;SDS011;37652;50.400;30.628;2022-09-16T14:51:55;5.00;;;2.83;;
36213;SDS011;37652;50.400;30.628;2022-09-16T14:54:01;10.13;;;7.82;;
36213;SDS011;37652;50.400;30.628;2022-09-16T14:58:03;5.55;;;2.88;;
36213;SDS011;37652;50.400;30.628;2022-09-16T15:00:04;4.82;;;3.10;;
36213;SDS011;37652;50.400;30.628;2022-09-16T15:04:18;4.38;;;3.97;;
36213;SDS011;37652;50.400;30.628;2022-09-16T15:06:28;3.05;;;2.38;;
36213;SDS011;37652;50.400;30.628;2022-09-16T15:08:37;4.30;;;3.10;;
36213;SDS011;37652;50.400;30.628;2022-09-16T15:10:46;3.22;;;2.92;;
36213;SDS011;37652;50.400;30.628;2022-09-16T15:12:49;3.00;;;2.63;;
36213;SDS011;37652;50.400;30.628;2022-09-16T15:14:52;3.63;;;2.85;;
36213;SDS011;37652;50.400;30.628;2022-09-16T15:16:57;5.75;;;2.90;;
36213;SDS011;37652;50.400;30.628;2022-09-16T15:19:02;2.78;;;2.53;;
36213;SDS011;37652;50.400;30.628;2022-09-16T15:21:07;5.80;;;3.10;;
36213;SDS011;37652;50.400;30.628;2022-09-16T15:23:24;3.05;;;2.75;;
36213;SDS011;37652;50.400;30.628;2022-09-16T15:25:26;4.55;;;3.08;;
36213;SDS011;37652;50.400;30.628;2022-09-16T15:27:29;2.95;;;2.70;;
36213;SDS011;37652;50.400;30.628;2022-09-16T15:29:32;5.82;;;2.90;;
36213;SDS011;37652;50.400;30.628;2022-09-16T15:31:36;4.07;;;2.78;;
36213;SDS011;37652;50.400;30.628;2022-09-16T15:33:40;3.25;;;2.72;;
36213;SDS011;37652;50.400;30.628;2022-09-16T15:35:47;4.68;;;2.60;;
36213;SDS011;37652;50.400;30.628;2022-09-16T15:37:52;5.53;;;3.47;;
36213;SDS011;37652;50.400;30.628;2022-09-16T15:39:54;8.55;;;2.83;;
36213;SDS011;37652;50.400;30.628;2022-09-16T15:42:09;3.30;;;2.85;;